Athelstane, WI

8:52 PM CDT on July 23, 2014 (GMT -0500)
Menominee-Marinette Twin County (KMNM) Elev 627 ft | 45.13 °N, 87.64 °W | Change Station

Current weather conditions updated 17 minutes ago

Clear
Clear
64 °F
Feels Like 64 °F
N
7
Wind Variable Wind from ENE

Tomorrow is forecast to be Warmer than today.

Today
High -- | Low -- °F
--% Chance of Precip.
Yesterday
High -- | Low -- °F
Precip. -- in
5:26 AM 8:31 PM
Waning Crescent, 7% visible
Pressure 30.16 in
Visibility 10.0 miles
Clouds Clear
Dew Point 50 °F
Humidity 59%
Rainfall 0.00 in
Snow Depth Not available.
UV 0 out of 12
Pollen 6.70 out of 12
Air Quality Not available.
Flu Activity Not available.
METAR KMNM 240135Z AUTO 07006KT 10SM CLR 18/10 A3016 RMK AO1

More Conditions Fewer Conditions

Pressure 30.16 in
Visibility 10.0 miles
Clouds Clear
Dew Point 50 °F
Humidity 59%
Rainfall 0.00 in
Snow Depth Not available.
UV 0 out of 12
Pollen 6.70 out of 12
Air Quality Not available.
Flu Activity Not available.
METAR KMNM 240135Z AUTO 07006KT 10SM CLR 18/10 A3016 RMK AO1

More Conditions Fewer Conditions

10-Day Weather Forecast

Almanac

Astronomy

Jul. 23, 2014 Rise Set
Actual Time 5:26 AM CDT 8:31 PM CDT
Civil Twilight 4:51 AM CDT 9:06 PM CDT
Nautical Twilight 4:06 AM CDT 9:51 PM CDT
Astronomical Twilight 3:10 AM CDT 10:46 PM CDT
Moon 2:47 AM CDT (7/23) 5:58 PM CDT (7/23)
Length of Visible Light 16h 14m
Length of Day
15h 04m
Tomorrow will be 2m 7s shorter.
Waning Crescent, 7% of the Moon is Illuminated
Today
Waning Crescent
Jul 26
New
Aug 3
First Quarter
Aug 10
Full
Aug 17
Last Quarter

Today's Extremes

State Highs State Lows

Community

WunderPhotos

Upload Photos

1,736,843 photos uploaded!

Nearby

Snow Depth

Station Depth Elevation
No new snow has been reported.

Earthquake Activity

City Distance Mag. Time & Date
No recent earthquake activity has been reported nearby.
Minimum magnitude displayed is 2.5.

Coastal Water Temperatures

Place Temperature
No Stations Reporting

Nearby Weather Stations

Station Location Temp. Dew Point Humidity Wind Precip. Elev Updated Type
Athelstane Township, Athelstane, WI 62.1 °F 39 °F 43% ENE  at  0.0 mph 0.00 in / hr 966 ft 8:52 PM CDT Rapid Fire
Pine Ridge Lake, Lakewood, WI 62.5 °F 54 °F 74% East  at  0.0 mph 0.00 in / hr 1266 ft 8:41 PM CDT Rapid Fire
Lakewood, WI 63.2 °F 54 °F 71% NNE  at  0.0 mph 0.00 in / hr 1219 ft 8:30 PM CDT Normal
Wiggins Lake, Pembine, WI 62.1 °F 52 °F 71% West  at  0.0 mph 0.00 in / hr 997 ft 8:52 PM CDT Rapid Fire
RAWS LAONA WI, Wabeno, WI 66 °F 50 °F 57% NNE  at  3 mph 0.00 in / hr 1560 ft 8:01 PM CDT MADIS
Mountain, Mountain, WI 60.0 °F 55 °F 84% North  at  0.0 mph 0.00 in / hr 925 ft 8:52 PM CDT Rapid Fire
Silver Lake, Laona, WI, Laona, WI 60.4 °F 49 °F 67% SSW  at  0.0 mph 0.00 in / hr 1581 ft 8:52 PM CDT Rapid Fire

Show More Stations Show Fewer Stations